sensor_id;sensor_type;location;lat;lon;timestamp;pressure;altitude;pressure_sealevel;temperature;humidity
18784;BME280;9520;50.954;6.968;2023-02-10T00:00:00;102957.44;;;11.03;44.81
18784;BME280;9520;50.954;6.968;2023-02-10T00:00:25;102965.44;;;11.08;44.72
18784;BME280;9520;50.954;6.968;2023-02-10T00:00:47;102961.06;;;11.08;44.91
18784;BME280;9520;50.954;6.968;2023-02-10T00:01:10;102944.19;;;11.02;44.89
18784;BME280;9520;50.954;6.968;2023-02-10T00:01:34;102950.31;;;10.99;44.80
18784;BME280;9520;50.954;6.968;2023-02-10T00:01:56;102970.78;;;11.11;44.90
18784;BME280;9520;50.954;6.968;2023-02-10T00:02:17;102960.28;;;11.14;44.79
18784;BME280;9520;50.954;6.968;2023-02-10T00:02:39;102970.00;;;11.16;44.79
18784;BME280;9520;50.954;6.968;2023-02-10T00:03:03;102969.09;;;11.14;44.73
18784;BME280;9520;50.954;6.968;2023-02-10T00:03:25;102974.38;;;11.14;44.94
18784;BME280;9520;50.954;6.968;2023-02-10T00:03:48;102966.41;;;11.13;44.80
18784;BME280;9520;50.954;6.968;2023-02-10T00:04:11;102968.22;;;11.15;44.86
18784;BME280;9520;50.954;6.968;2023-02-10T00:04:34;102963.75;;;11.11;44.77
18784;BME280;9520;50.954;6.968;2023-02-10T00:04:56;102965.47;;;11.11;44.95
18784;BME280;9520;50.954;6.968;2023-02-10T00:05:17;102966.47;;;11.14;44.93
18784;BME280;9520;50.954;6.968;2023-02-10T00:05:39;102963.81;;;11.14;44.77
18784;BME280;9520;50.954;6.968;2023-02-10T00:06:02;102967.31;;;11.13;44.74
18784;BME280;9520;50.954;6.968;2023-02-10T00:06:26;102967.31;;;11.13;44.86
18784;BME280;9520;50.954;6.968;2023-02-10T00:06:48;102970.78;;;11.11;44.91
18784;BME280;9520;50.954;6.968;2023-02-10T00:07:09;102974.28;;;11.10;45.04
18784;BME280;9520;50.954;6.968;2023-02-10T00:07:32;102977.03;;;11.14;45.15
18784;BME280;9520;50.954;6.968;2023-02-10T00:07:53;102969.09;;;11.16;45.04
18784;BME280;9520;50.954;6.968;2023-02-10T00:08:15;102975.28;;;11.16;44.78
18784;BME280;9520;50.954;6.968;2023-02-10T00:08:37;102967.34;;;11.15;44.86
18784;BME280;9520;50.954;6.968;2023-02-10T00:09:01;102973.56;;;11.18;44.98
18784;BME280;9520;50.954;6.968;2023-02-10T00:09:23;102969.09;;;11.16;44.88
18784;BME280;9520;50.954;6.968;2023-02-10T00:09:46;102976.19;;;11.17;45.01
18784;BME280;9520;50.954;6.968;2023-02-10T00:10:09;102970.91;;;11.17;44.94
18784;BME280;9520;50.954;6.968;2023-02-10T00:10:31;102978.78;;;11.14;44.92
18784;BME280;9520;50.954;6.968;2023-02-10T00:10:56;102966.38;;;11.11;44.99
18784;BME280;9520;50.954;6.968;2023-02-10T00:11:18;102973.50;;;11.15;44.95
18784;BME280;9520;50.954;6.968;2023-02-10T00:11:40;102969.03;;;11.11;44.98
18784;BME280;9520;50.954;6.968;2023-02-10T00:12:21;102983.16;;;11.13;44.92
18784;BME280;9520;50.954;6.968;2023-02-10T00:12:43;102982.22;;;11.11;45.17
18784;BME280;9520;50.954;6.968;2023-02-10T00:13:05;102976.94;;;11.10;45.12
18784;BME280;9520;50.954;6.968;2023-02-10T00:13:28;102973.41;;;11.11;45.10
18784;BME280;9520;50.954;6.968;2023-02-10T00:13:51;102978.72;;;11.12;45.20
18784;BME280;9520;50.954;6.968;2023-02-10T00:14:13;102975.25;;;11.13;45.15
18784;BME280;9520;50.954;6.968;2023-02-10T00:14:35;102977.00;;;11.13;45.09
18784;BME280;9520;50.954;6.968;2023-02-10T00:14:57;102969.81;;;11.07;45.09
18784;BME280;9520;50.954;6.968;2023-02-10T00:15:20;102982.22;;;11.10;45.04
18784;BME280;9520;50.954;6.968;2023-02-10T00:15:41;102981.28;;;11.08;45.01
18784;BME280;9520;50.954;6.968;2023-02-10T00:16:05;102967.91;;;11.00;45.01
18784;BME280;9520;50.954;6.968;2023-02-10T00:16:27;102974.28;;;11.10;44.88
18784;BME280;9520;50.954;6.968;2023-02-10T00:16:49;102962.63;;;11.00;44.92
18784;BME280;9520;50.954;6.968;2023-02-10T00:17:12;102980.47;;;11.12;44.96
18784;BME280;9520;50.954;6.968;2023-02-10T00:17:36;102983.16;;;11.13;45.01
18784;BME280;9520;50.954;6.968;2023-02-10T00:17:58;102978.78;;;11.15;45.01
18784;BME280;9520;50.954;6.968;2023-02-10T00:18:21;102982.28;;;11.13;45.00
18784;BME280;9520;50.954;6.968;2023-02-10T00:18:43;102968.09;;;11.08;44.95
18784;BME280;9520;50.954;6.968;2023-02-10T00:19:05;102983.22;;;11.16;44.91
18784;BME280;9520;50.954;6.968;2023-02-10T00:19:28;102985.84;;;11.16;44.95
18784;BME280;9520;50.954;6.968;2023-02-10T00:19:50;102980.56;;;11.16;44.85
18784;BME280;9520;50.954;6.968;2023-02-10T00:20:12;102989.28;;;11.12;44.94
18784;BME280;9520;50.954;6.968;2023-02-10T00:20:34;102980.56;;;11.15;45.19
18784;BME280;9520;50.954;6.968;2023-02-10T00:20:56;102980.53;;;11.13;45.04
18784;BME280;9520;50.954;6.968;2023-02-10T00:21:18;102983.22;;;11.16;45.19
18784;BME280;9520;50.954;6.968;2023-02-10T00:21:41;102981.50;;;11.20;45.00
18784;BME280;9520;50.954;6.968;2023-02-10T00:22:03;102986.78;;;11.18;45.03
18784;BME280;9520;50.954;6.968;2023-02-10T00:22:25;102983.28;;;11.19;45.11
18784;BME280;9520;50.954;6.968;2023-02-10T00:22:47;102980.56;;;11.16;45.10
18784;BME280;9520;50.954;6.968;2023-02-10T00:23:09;102983.16;;;11.13;45.12
18784;BME280;9520;50.954;6.968;2023-02-10T00:23:31;102985.00;;;11.17;45.18
18784;BME280;9520;50.954;6.968;2023-02-10T00:23:52;102982.34;;;11.17;44.94
18784;BME280;9520;50.954;6.968;2023-02-10T00:24:14;102981.47;;;11.17;44.83
18784;BME280;9520;50.954;6.968;2023-02-10T00:24:37;102977.06;;;11.17;45.06
18784;BME280;9520;50.954;6.968;2023-02-10T00:24:59;102984.19;;;11.21;44.95
18784;BME280;9520;50.954;6.968;2023-02-10T00:25:20;102980.69;;;11.22;44.97
18784;BME280;9520;50.954;6.968;2023-02-10T00:25:42;102978.00;;;11.21;45.04
18784;BME280;9520;50.954;6.968;2023-02-10T00:26:06;102987.69;;;11.20;45.17
18784;BME280;9520;50.954;6.968;2023-02-10T00:26:28;102982.41;;;11.20;45.13
18784;BME280;9520;50.954;6.968;2023-02-10T00:26:50;102979.75;;;11.20;45.17
18784;BME280;9520;50.954;6.968;2023-02-10T00:27:12;102979.81;;;11.22;45.09
18784;BME280;9520;50.954;6.968;2023-02-10T00:27:34;102985.09;;;11.22;45.25
18784;BME280;9520;50.954;6.968;2023-02-10T00:27:56;102983.34;;;11.22;45.32
18784;BME280;9520;50.954;6.968;2023-02-10T00:28:18;102976.22;;;11.20;45.33
18784;BME280;9520;50.954;6.968;2023-02-10T00:28:40;102985.03;;;11.20;45.40
18784;BME280;9520;50.954;6.968;2023-02-10T00:29:02;102978.06;;;11.22;45.41
18784;BME280;9520;50.954;6.968;2023-02-10T00:29:25;102978.91;;;11.21;45.50
18784;BME280;9520;50.954;6.968;2023-02-10T00:29:51;102977.97;;;11.18;45.71
18784;BME280;9520;50.954;6.968;2023-02-10T00:30:13;102975.28;;;11.16;45.48
18784;BME280;9520;50.954;6.968;2023-02-10T00:30:36;102985.84;;;11.16;45.57
18784;BME280;9520;50.954;6.968;2023-02-10T00:30:59;102977.03;;;11.14;45.44
18784;BME280;9520;50.954;6.968;2023-02-10T00:31:20;102982.31;;;11.16;45.68
18784;BME280;9520;50.954;6.968;2023-02-10T00:31:43;102976.13;;;11.15;45.43
18784;BME280;9520;50.954;6.968;2023-02-10T00:32:06;102974.38;;;11.14;45.35
18784;BME280;9520;50.954;6.968;2023-02-10T00:32:29;102976.09;;;11.12;45.52
18784;BME280;9520;50.954;6.968;2023-02-10T00:32:50;102975.28;;;11.15;45.70
18784;BME280;9520;50.954;6.968;2023-02-10T00:33:12;102957.44;;;11.03;45.67
18784;BME280;9520;50.954;6.968;2023-02-10T00:33:36;102977.94;;;11.16;45.63
18784;BME280;9520;50.954;6.968;2023-02-10T00:33:57;102980.59;;;11.18;45.75
18784;BME280;9520;50.954;6.968;2023-02-10T00:34:21;102979.75;;;11.19;45.68
18784;BME280;9520;50.954;6.968;2023-02-10T00:34:43;102978.81;;;11.17;45.55
18784;BME280;9520;50.954;6.968;2023-02-10T00:35:07;102982.41;;;11.19;45.45
18784;BME280;9520;50.954;6.968;2023-02-10T00:35:30;102980.66;;;11.19;45.82
18784;BME280;9520;50.954;6.968;2023-02-10T00:35:52;102974.50;;;11.22;45.75
18784;BME280;9520;50.954;6.968;2023-02-10T00:36:15;102982.47;;;11.23;45.79
18784;BME280;9520;50.954;6.968;2023-02-10T00:36:38;102956.75;;;11.13;45.49
18784;BME280;9520;50.954;6.968;2023-02-10T00:36:59;102976.25;;;11.21;45.66
18784;BME280;9520;50.954;6.968;2023-02-10T00:37:22;102978.06;;;11.22;45.58
18784;BME280;9520;50.954;6.968;2023-02-10T00:37:46;102980.69;;;11.22;45.53
18784;BME280;9520;50.954;6.968;2023-02-10T00:38:07;102970.09;;;11.19;45.58
18784;BME280;9520;50.954;6.968;2023-02-10T00:38:29;102985.09;;;11.22;45.31
18784;BME280;9520;50.954;6.968;2023-02-10T00:38:51;102978.00;;;11.19;45.44
18784;BME280;9520;50.954;6.968;2023-02-10T00:39:15;102984.19;;;11.21;45.68
18784;BME280;9520;50.954;6.968;2023-02-10T00:39:37;102982.41;;;11.20;45.83
18784;BME280;9520;50.954;6.968;2023-02-10T00:39:58;102983.28;;;11.21;45.71
18784;BME280;9520;50.954;6.968;2023-02-10T00:40:21;102977.16;;;11.22;45.70
18784;BME280;9520;50.954;6.968;2023-02-10T00:40:43;102986.91;;;11.24;45.42
18784;BME280;9520;50.954;6.968;2023-02-10T00:41:07;102988.66;;;11.24;45.53
18784;BME280;9520;50.954;6.968;2023-02-10T00:41:29;102986.91;;;11.24;45.68
18784;BME280;9520;50.954;6.968;2023-02-10T00:41:51;102993.06;;;11.25;45.58
18784;BME280;9520;50.954;6.968;2023-02-10T00:42:13;102987.75;;;11.23;45.59
18784;BME280;9520;50.954;6.968;2023-02-10T00:42:35;102988.66;;;11.25;45.51
18784;BME280;9520;50.954;6.968;2023-02-10T00:42:57;102985.97;;;11.22;45.57
18784;BME280;9520;50.954;6.968;2023-02-10T00:43:19;102983.38;;;11.24;45.46
18784;BME280;9520;50.954;6.968;2023-02-10T00:43:40;102981.69;;;11.27;45.54
18784;BME280;9520;50.954;6.968;2023-02-10T00:44:03;102993.19;;;11.30;45.33
18784;BME280;9520;50.954;6.968;2023-02-10T00:44:25;102987.88;;;11.30;45.32
18784;BME280;9520;50.954;6.968;2023-02-10T00:44:47;102990.44;;;11.26;45.53
18784;BME280;9520;50.954;6.968;2023-02-10T00:45:10;102986.91;;;11.26;45.59
18784;BME280;9520;50.954;6.968;2023-02-10T00:45:31;102995.69;;;11.25;45.71
18784;BME280;9520;50.954;6.968;2023-02-10T00:45:53;102993.09;;;11.26;45.60
18784;BME280;9520;50.954;6.968;2023-02-10T00:46:16;102988.66;;;11.24;45.37
18784;BME280;9520;50.954;6.968;2023-02-10T00:46:39;102982.44;;;11.22;45.42
18784;BME280;9520;50.954;6.968;2023-02-10T00:47:02;102995.69;;;11.23;45.58
18784;BME280;9520;50.954;6.968;2023-02-10T00:47:24;102981.47;;;11.17;45.59
18784;BME280;9520;50.954;6.968;2023-02-10T00:47:47;102988.63;;;11.22;45.48
18784;BME280;9520;50.954;6.968;2023-02-10T00:48:11;102997.56;;;11.29;45.34
18784;BME280;9520;50.954;6.968;2023-02-10T00:48:35;102994.88;;;11.27;45.29
18784;BME280;9520;50.954;6.968;2023-02-10T00:48:57;102996.63;;;11.27;45.29
18784;BME280;9520;50.954;6.968;2023-02-10T00:49:19;103005.50;;;11.29;45.35
18784;BME280;9520;50.954;6.968;2023-02-10T00:49:41;102989.56;;;11.26;45.44
18784;BME280;9520;50.954;6.968;2023-02-10T00:50:04;102995.78;;;11.28;45.60
18784;BME280;9520;50.954;6.968;2023-02-10T00:50:26;102997.47;;;11.26;45.53
18784;BME280;9520;50.954;6.968;2023-02-10T00:50:47;103001.81;;;11.22;45.47
18784;BME280;9520;50.954;6.968;2023-02-10T00:51:09;102991.22;;;11.21;45.56
18784;BME280;9520;50.954;6.968;2023-02-10T00:51:31;102997.44;;;11.23;45.46
18784;BME280;9520;50.954;6.968;2023-02-10T00:51:54;102993.03;;;11.23;45.38
18784;BME280;9520;50.954;6.968;2023-02-10T00:52:16;102992.97;;;11.20;45.28
18784;BME280;9520;50.954;6.968;2023-02-10T00:52:38;102992.97;;;11.20;45.39
18784;BME280;9520;50.954;6.968;2023-02-10T00:53:01;102992.97;;;11.19;45.57
18784;BME280;9520;50.954;6.968;2023-02-10T00:53:22;102997.34;;;11.18;45.61
18784;BME280;9520;50.954;6.968;2023-02-10T00:53:46;102992.84;;;11.13;45.73
18784;BME280;9520;50.954;6.968;2023-02-10T00:54:11;102991.94;;;11.12;45.78
18784;BME280;9520;50.954;6.968;2023-02-10T00:54:33;102993.72;;;11.13;45.68
18784;BME280;9520;50.954;6.968;2023-02-10T00:54:56;102988.44;;;11.13;45.67
18784;BME280;9520;50.954;6.968;2023-02-10T00:55:17;102990.19;;;11.13;45.67
18784;BME280;9520;50.954;6.968;2023-02-10T00:55:39;102996.31;;;11.12;45.56
18784;BME280;9520;50.954;6.968;2023-02-10T00:56:01;102990.16;;;11.11;45.90
18784;BME280;9520;50.954;6.968;2023-02-10T00:56:23;102991.88;;;11.09;45.65
18784;BME280;9520;50.954;6.968;2023-02-10T00:56:45;102991.00;;;11.10;45.82
18784;BME280;9520;50.954;6.968;2023-02-10T00:57:07;102985.72;;;11.10;45.74
18784;BME280;9520;50.954;6.968;2023-02-10T00:57:29;102989.25;;;11.11;45.62
18784;BME280;9520;50.954;6.968;2023-02-10T00:57:51;102987.50;;;11.11;45.72
18784;BME280;9520;50.954;6.968;2023-02-10T00:58:13;102990.16;;;11.11;45.59
18784;BME280;9520;50.954;6.968;2023-02-10T00:58:35;102983.97;;;11.09;45.47
18784;BME280;9520;50.954;6.968;2023-02-10T00:58:57;102988.41;;;11.12;45.47
18784;BME280;9520;50.954;6.968;2023-02-10T00:59:18;102979.47;;;11.05;45.68
18784;BME280;9520;50.954;6.968;2023-02-10T00:59:42;102985.63;;;11.06;45.70
18784;BME280;9520;50.954;6.968;2023-02-10T01:00:04;102988.22;;;11.03;45.64
18784;BME280;9520;50.954;6.968;2023-02-10T01:00:27;102986.41;;;11.00;45.92
18784;BME280;9520;50.954;6.968;2023-02-10T01:00:49;102991.75;;;11.03;45.78
18784;BME280;9520;50.954;6.968;2023-02-10T01:01:11;102989.16;;;11.05;45.54
18784;BME280;9520;50.954;6.968;2023-02-10T01:01:34;102993.50;;;11.03;45.72
18784;BME280;9520;50.954;6.968;2023-02-10T01:01:55;102988.19;;;11.01;45.76
18784;BME280;9520;50.954;6.968;2023-02-10T01:02:17;102987.28;;;10.99;45.82
18784;BME280;9520;50.954;6.968;2023-02-10T01:02:40;102988.13;;;10.98;45.88
18784;BME280;9520;50.954;6.968;2023-02-10T01:03:01;102989.13;;;11.03;45.91
18784;BME280;9520;50.954;6.968;2023-02-10T01:03:23;102990.00;;;11.04;45.82
18784;BME280;9520;50.954;6.968;2023-02-10T01:03:46;102990.91;;;11.06;45.86
18784;BME280;9520;50.954;6.968;2023-02-10T01:04:09;102992.78;;;11.10;45.77
18784;BME280;9520;50.954;6.968;2023-02-10T01:04:31;102966.97;;;10.97;45.78
18784;BME280;9520;50.954;6.968;2023-02-10T01:04:52;102992.78;;;11.10;45.69
18784;BME280;9520;50.954;6.968;2023-02-10T01:05:14;102995.44;;;11.11;45.71
18784;BME280;9520;50.954;6.968;2023-02-10T01:05:37;102985.63;;;11.04;45.79
18784;BME280;9520;50.954;6.968;2023-02-10T01:05:58;102992.75;;;11.08;45.67
18784;BME280;9520;50.954;6.968;2023-02-10T01:06:20;102994.53;;;11.11;45.54
18784;BME280;9520;50.954;6.968;2023-02-10T01:06:42;102987.47;;;11.08;45.65
18784;BME280;9520;50.954;6.968;2023-02-10T01:07:04;102990.16;;;11.10;45.45
18784;BME280;9520;50.954;6.968;2023-02-10T01:07:26;102978.59;;;11.06;45.30
18784;BME280;9520;50.954;6.968;2023-02-10T01:07:48;102987.50;;;11.11;45.47
18784;BME280;9520;50.954;6.968;2023-02-10T01:08:10;102984.88;;;11.10;45.39
18784;BME280;9520;50.954;6.968;2023-02-10T01:08:32;102987.56;;;11.13;45.30
18784;BME280;9520;50.954;6.968;2023-02-10T01:08:55;102972.44;;;11.06;45.39
18784;BME280;9520;50.954;6.968;2023-02-10T01:09:17;102988.50;;;11.15;45.41
18784;BME280;9520;50.954;6.968;2023-02-10T01:09:39;102987.50;;;11.11;45.38
18784;BME280;9520;50.954;6.968;2023-02-10T01:10:02;102987.50;;;11.11;45.43
18784;BME280;9520;50.954;6.968;2023-02-10T01:10:24;102994.56;;;11.12;45.48
18784;BME280;9520;50.954;6.968;2023-02-10T01:10:46;102992.78;;;11.10;45.34
18784;BME280;9520;50.954;6.968;2023-02-10T01:11:10;102992.78;;;11.11;45.14
18784;BME280;9520;50.954;6.968;2023-02-10T01:11:33;102989.28;;;11.12;45.27
18784;BME280;9520;50.954;6.968;2023-02-10T01:11:56;102983.09;;;11.10;45.09
18784;BME280;9520;50.954;6.968;2023-02-10T01:12:18;102984.94;;;11.14;45.06
18784;BME280;9520;50.954;6.968;2023-02-10T01:12:40;102988.50;;;11.15;45.00
18784;BME280;9520;50.954;6.968;2023-02-10T01:13:01;102994.63;;;11.15;45.14
18784;BME280;9520;50.954;6.968;2023-02-10T01:13:23;102988.53;;;11.18;45.01
18784;BME280;9520;50.954;6.968;2023-02-10T01:13:46;102990.28;;;11.17;44.94
18784;BME280;9520;50.954;6.968;2023-02-10T01:14:07;102998.25;;;11.20;44.95
18784;BME280;9520;50.954;6.968;2023-02-10T01:14:29;102991.22;;;11.21;44.83
18784;BME280;9520;50.954;6.968;2023-02-10T01:14:52;102984.19;;;11.21;44.58
18784;BME280;9520;50.954;6.968;2023-02-10T01:15:14;102994.75;;;11.21;45.15
18784;BME280;9520;50.954;6.968;2023-02-10T01:15:36;102993.00;;;11.22;44.92
18784;BME280;9520;50.954;6.968;2023-02-10T01:16:04;103000.00;;;11.18;45.03
18784;BME280;9520;50.954;6.968;2023-02-10T01:16:26;102998.25;;;11.20;44.98
18784;BME280;9520;50.954;6.968;2023-02-10T01:16:49;103000.03;;;11.21;45.01
18784;BME280;9520;50.954;6.968;2023-02-10T01:17:10;102999.16;;;11.21;44.96
18784;BME280;9520;50.954;6.968;2023-02-10T01:17:32;103004.34;;;11.16;44.91
18784;BME280;9520;50.954;6.968;2023-02-10T01:17:54;103000.75;;;11.13;44.94
18784;BME280;9520;50.954;6.968;2023-02-10T01:18:17;102983.94;;;11.08;44.91
18784;BME280;9520;50.954;6.968;2023-02-10T01:18:39;102994.53;;;11.09;44.77
18784;BME280;9520;50.954;6.968;2023-02-10T01:19:03;103001.66;;;11.13;44.95
18784;BME280;9520;50.954;6.968;2023-02-10T01:19:25;103001.59;;;11.12;45.02
18784;BME280;9520;50.954;6.968;2023-02-10T01:19:48;102992.78;;;11.11;44.96
18784;BME280;9520;50.954;6.968;2023-02-10T01:20:12;102999.91;;;11.15;44.94
18784;BME280;9520;50.954;6.968;2023-02-10T01:20:34;103003.44;;;11.16;44.87
18784;BME280;9520;50.954;6.968;2023-02-10T01:20:55;103002.53;;;11.14;44.72
18784;BME280;9520;50.954;6.968;2023-02-10T01:21:19;103010.47;;;11.15;44.94
18784;BME280;9520;50.954;6.968;2023-02-10T01:21:41;103000.88;;;11.19;44.95
18784;BME280;9520;50.954;6.968;2023-02-10T01:22:03;102986.56;;;11.08;44.81
18784;BME280;9520;50.954;6.968;2023-02-10T01:22:25;103011.44;;;11.19;44.94
18784;BME280;9520;50.954;6.968;2023-02-10T01:22:47;103008.81;;;11.20;44.84
18784;BME280;9520;50.954;6.968;2023-02-10T01:23:10;103009.72;;;11.21;44.82
18784;BME280;9520;50.954;6.968;2023-02-10T01:23:33;103000.00;;;11.18;44.77
18784;BME280;9520;50.954;6.968;2023-02-10T01:23:55;103000.00;;;11.20;44.81
18784;BME280;9520;50.954;6.968;2023-02-10T01:24:17;103008.81;;;11.19;44.91
18784;BME280;9520;50.954;6.968;2023-02-10T01:24:39;102986.53;;;11.06;44.89
18784;BME280;9520;50.954;6.968;2023-02-10T01:25:02;102999.91;;;11.15;44.87
18784;BME280;9520;50.954;6.968;2023-02-10T01:25:24;103004.25;;;11.12;44.96
18784;BME280;9520;50.954;6.968;2023-02-10T01:25:46;103007.88;;;11.17;44.98
18784;BME280;9520;50.954;6.968;2023-02-10T01:26:10;103008.78;;;11.17;45.05
18784;BME280;9520;50.954;6.968;2023-02-10T01:26:33;103005.19;;;11.14;45.10
18784;BME280;9520;50.954;6.968;2023-02-10T01:26:55;103011.38;;;11.16;45.09
18784;BME280;9520;50.954;6.968;2023-02-10T01:27:17;103006.94;;;11.13;45.01
18784;BME280;9520;50.954;6.968;2023-02-10T01:27:39;103010.47;;;11.14;45.13
18784;BME280;9520;50.954;6.968;2023-02-10T01:28:03;102997.19;;;11.11;45.11
18784;BME280;9520;50.954;6.968;2023-02-10T01:28:26;103009.63;;;11.16;45.13
18784;BME280;9520;50.954;6.968;2023-02-10T01:28:47;103016.69;;;11.17;45.11
18784;BME280;9520;50.954;6.968;2023-02-10T01:29:09;103021.97;;;11.17;45.04
18784;BME280;9520;50.954;6.968;2023-02-10T01:29:32;103014.00;;;11.16;44.98
18784;BME280;9520;50.954;6.968;2023-02-10T01:29:54;103000.72;;;11.10;44.91
18784;BME280;9520;50.954;6.968;2023-02-10T01:30:16;103014.78;;;11.09;45.21
18784;BME280;9520;50.954;6.968;2023-02-10T01:30:37;103013.78;;;11.05;45.19
18784;BME280;9520;50.954;6.968;2023-02-10T01:31:04;103012.94;;;11.06;45.19
18784;BME280;9520;50.954;6.968;2023-02-10T01:31:30;103004.06;;;11.03;45.31
18784;BME280;9520;50.954;6.968;2023-02-10T01:31:52;103008.56;;;11.07;45.42
18784;BME280;9520;50.954;6.968;2023-02-10T01:32:13;103006.81;;;11.07;45.47
18784;BME280;9520;50.954;6.968;2023-02-10T01:32:36;103014.78;;;11.09;45.42
18784;BME280;9520;50.954;6.968;2023-02-10T01:32:58;103010.38;;;11.09;45.32
18784;BME280;9520;50.954;6.968;2023-02-10T01:33:19;103014.78;;;11.10;45.33
18784;BME280;9520;50.954;6.968;2023-02-10T01:33:41;103006.91;;;11.12;45.31
18784;BME280;9520;50.954;6.968;2023-02-10T01:34:05;103019.22;;;11.11;45.26
18784;BME280;9520;50.954;6.968;2023-02-10T01:34:31;103021.00;;;11.12;45.28
18784;BME280;9520;50.954;6.968;2023-02-10T01:34:52;103005.00;;;11.06;45.34
18784;BME280;9520;50.954;6.968;2023-02-10T01:35:15;103014.78;;;11.10;45.23
18784;BME280;9520;50.954;6.968;2023-02-10T01:35:37;103012.22;;;11.13;45.37
18784;BME280;9520;50.954;6.968;2023-02-10T01:36:03;103013.13;;;11.14;45.25
18784;BME280;9520;50.954;6.968;2023-02-10T01:36:26;103007.75;;;11.09;45.36
18784;BME280;9520;50.954;6.968;2023-02-10T01:36:49;103015.72;;;11.12;45.53
18784;BME280;9520;50.954;6.968;2023-02-10T01:37:11;103013.97;;;11.13;45.34
18784;BME280;9520;50.954;6.968;2023-02-10T01:37:33;103014.00;;;11.14;45.29
18784;BME280;9520;50.954;6.968;2023-02-10T01:37:57;103007.78;;;11.12;45.13
18784;BME280;9520;50.954;6.968;2023-02-10T01:38:19;103014.09;;;11.20;45.26
18784;BME280;9520;50.954;6.968;2023-02-10T01:38:43;103006.97;;;11.16;45.17
18784;BME280;9520;50.954;6.968;2023-02-10T01:39:10;102999.81;;;11.09;45.21
18784;BME280;9520;50.954;6.968;2023-02-10T01:39:32;103017.56;;;11.16;45.28
18784;BME280;9520;50.954;6.968;2023-02-10T01:39:54;103007.91;;;11.18;45.21
18784;BME280;9520;50.954;6.968;2023-02-10T01:40:55;103019.28;;;11.14;45.33
18784;BME280;9520;50.954;6.968;2023-02-10T01:41:19;103016.66;;;11.16;45.28
18784;BME280;9520;50.954;6.968;2023-02-10T01:41:42;103011.28;;;11.11;45.29
18784;BME280;9520;50.954;6.968;2023-02-10T01:42:03;103017.53;;;11.15;45.28
18784;BME280;9520;50.954;6.968;2023-02-10T01:42:25;103009.63;;;11.16;45.28
18784;BME280;9520;50.954;6.968;2023-02-10T01:42:47;103014.00;;;11.14;45.29
18784;BME280;9520;50.954;6.968;2023-02-10T01:43:12;103011.28;;;11.10;45.39
18784;BME280;9520;50.954;6.968;2023-02-10T01:43:53;103011.38;;;11.16;45.32
18784;BME280;9520;50.954;6.968;2023-02-10T01:45:18;103008.81;;;11.19;45.23
18784;BME280;9520;50.954;6.968;2023-02-10T01:45:41;103013.22;;;11.20;45.17
18784;BME280;9520;50.954;6.968;2023-02-10T01:46:03;103024.66;;;11.20;45.31
18784;BME280;9520;50.954;6.968;2023-02-10T01:46:27;103015.88;;;11.21;45.20
18784;BME280;9520;50.954;6.968;2023-02-10T01:46:49;103014.09;;;11.19;45.23
18784;BME280;9520;50.954;6.968;2023-02-10T01:47:11;103016.75;;;11.20;45.30
18784;BME280;9520;50.954;6.968;2023-02-10T01:47:33;103016.72;;;11.19;45.28
18784;BME280;9520;50.954;6.968;2023-02-10T01:47:56;103012.25;;;11.16;45.36
18784;BME280;9520;50.954;6.968;2023-02-10T01:48:18;103022.91;;;11.19;45.41
18784;BME280;9520;50.954;6.968;2023-02-10T01:48:40;103018.47;;;11.18;45.34
18784;BME280;9520;50.954;6.968;2023-02-10T01:49:06;103022.06;;;11.22;45.18
18784;BME280;9520;50.954;6.968;2023-02-10T01:49:34;103022.97;;;11.22;45.23
18784;BME280;9520;50.954;6.968;2023-02-10T01:50:00;103015.97;;;11.24;45.19
18784;BME280;9520;50.954;6.968;2023-02-10T01:50:25;102996.38;;;11.13;44.99
18784;BME280;9520;50.954;6.968;2023-02-10T01:50:50;103023.94;;;11.27;45.14
18784;BME280;9520;50.954;6.968;2023-02-10T01:51:15;103024.78;;;11.26;44.99
18784;BME280;9520;50.954;6.968;2023-02-10T01:51:42;103021.31;;;11.27;45.06
18784;BME280;9520;50.954;6.968;2023-02-10T01:52:09;103023.91;;;11.24;45.19
18784;BME280;9520;50.954;6.968;2023-02-10T01:52:33;103018.53;;;11.21;45.34
18784;BME280;9520;50.954;6.968;2023-02-10T01:52:57;103021.19;;;11.21;45.29
18784;BME280;9520;50.954;6.968;2023-02-10T01:53:20;103022.03;;;11.19;45.31
18784;BME280;9520;50.954;6.968;2023-02-10T01:53:42;103024.66;;;11.20;45.29
18784;BME280;9520;50.954;6.968;2023-02-10T01:54:06;103021.97;;;11.17;45.13
18784;BME280;9520;50.954;6.968;2023-02-10T01:54:33;103024.56;;;11.16;45.10
18784;BME280;9520;50.954;6.968;2023-02-10T01:54:59;103020.19;;;11.16;45.20
18784;BME280;9520;50.954;6.968;2023-02-10T01:55:24;102985.44;;;10.95;45.08
18784;BME280;9520;50.954;6.968;2023-02-10T01:55:49;103021.84;;;11.11;45.18
18784;BME280;9520;50.954;6.968;2023-02-10T01:56:14;103024.56;;;11.16;45.30
18784;BME280;9520;50.954;6.968;2023-02-10T01:56:39;103021.88;;;11.13;45.28
18784;BME280;9520;50.954;6.968;2023-02-10T01:57:01;103018.31;;;11.09;45.31
18784;BME280;9520;50.954;6.968;2023-02-10T01:57:24;103025.28;;;11.07;45.29
18784;BME280;9520;50.954;6.968;2023-02-10T01:57:46;103030.53;;;11.06;45.37
18784;BME280;9520;50.954;6.968;2023-02-10T01:58:18;103026.09;;;11.03;45.17
18784;BME280;9520;50.954;6.968;2023-02-10T01:58:42;103010.16;;;10.99;45.28
18784;BME280;9520;50.954;6.968;2023-02-10T01:59:06;103030.56;;;11.07;45.34
18784;BME280;9520;50.954;6.968;2023-02-10T01:59:30;103031.47;;;11.08;45.32
18784;BME280;9520;50.954;6.968;2023-02-10T01:59:56;103030.56;;;11.07;45.16
18784;BME280;9520;50.954;6.968;2023-02-10T02:00:20;103025.25;;;11.06;45.35
18784;BME280;9520;50.954;6.968;2023-02-10T02:00:41;103020.84;;;11.06;45.34
18784;BME280;9520;50.954;6.968;2023-02-10T02:01:04;103028.78;;;11.06;45.38
18784;BME280;9520;50.954;6.968;2023-02-10T02:01:26;103027.00;;;11.04;45.37
18784;BME280;9520;50.954;6.968;2023-02-10T02:01:49;103030.44;;;11.01;45.41
18784;BME280;9520;50.954;6.968;2023-02-10T02:02:11;103027.84;;;11.03;45.23